sensor_id;sensor_type;location;lat;lon;timestamp;P1;durP1;ratioP1;P2;durP2;ratioP2
59093;SDS011;44880;52.814;18.270;2022-09-29T00:02:08;17.30;;;8.40;;
59093;SDS011;44880;52.814;18.270;2022-09-29T00:04:40;15.80;;;8.80;;
59093;SDS011;44880;52.814;18.270;2022-09-29T00:07:11;15.10;;;8.40;;
59093;SDS011;44880;52.814;18.270;2022-09-29T00:09:42;13.60;;;7.50;;
59093;SDS011;44880;52.814;18.270;2022-09-29T00:12:14;14.70;;;8.20;;
59093;SDS011;44880;52.814;18.270;2022-09-29T00:14:45;14.10;;;8.00;;
59093;SDS011;44880;52.814;18.270;2022-09-29T00:17:17;15.80;;;8.60;;
59093;SDS011;44880;52.814;18.270;2022-09-29T00:19:48;19.20;;;9.70;;
59093;SDS011;44880;52.814;18.270;2022-09-29T00:22:19;14.40;;;7.90;;
59093;SDS011;44880;52.814;18.270;2022-09-29T00:24:51;16.60;;;8.30;;
59093;SDS011;44880;52.814;18.270;2022-09-29T00:27:22;14.30;;;8.70;;
59093;SDS011;44880;52.814;18.270;2022-09-29T00:29:54;15.40;;;8.90;;
59093;SDS011;44880;52.814;18.270;2022-09-29T00:32:25;13.90;;;8.10;;
59093;SDS011;44880;52.814;18.270;2022-09-29T00:34:56;15.00;;;9.40;;
59093;SDS011;44880;52.814;18.270;2022-09-29T00:37:28;14.60;;;8.60;;
59093;SDS011;44880;52.814;18.270;2022-09-29T00:39:59;15.00;;;7.90;;
59093;SDS011;44880;52.814;18.270;2022-09-29T00:42:31;15.10;;;8.10;;
59093;SDS011;44880;52.814;18.270;2022-09-29T00:47:55;14.60;;;7.90;;
59093;SDS011;44880;52.814;18.270;2022-09-29T00:50:37;13.40;;;8.00;;
59093;SDS011;44880;52.814;18.270;2022-09-29T00:53:12;14.30;;;8.90;;
59093;SDS011;44880;52.814;18.270;2022-09-29T00:55:45;17.10;;;10.20;;
59093;SDS011;44880;52.814;18.270;2022-09-29T00:58:20;17.10;;;10.30;;
59093;SDS011;44880;52.814;18.270;2022-09-29T01:00:55;19.00;;;11.20;;
59093;SDS011;44880;52.814;18.270;2022-09-29T01:03:27;17.50;;;10.30;;
59093;SDS011;44880;52.814;18.270;2022-09-29T01:06:00;16.60;;;9.80;;
59093;SDS011;44880;52.814;18.270;2022-09-29T01:08:38;20.10;;;11.80;;
59093;SDS011;44880;52.814;18.270;2022-09-29T01:11:12;21.00;;;12.50;;
59093;SDS011;44880;52.814;18.270;2022-09-29T01:13:44;24.40;;;14.30;;
59093;SDS011;44880;52.814;18.270;2022-09-29T01:16:16;26.10;;;16.80;;
59093;SDS011;44880;52.814;18.270;2022-09-29T01:18:47;27.90;;;16.80;;
59093;SDS011;44880;52.814;18.270;2022-09-29T01:26:59;21.70;;;13.30;;
59093;SDS011;44880;52.814;18.270;2022-09-29T01:29:48;19.50;;;12.00;;
59093;SDS011;44880;52.814;18.270;2022-09-29T01:32:27;19.00;;;11.00;;
59093;SDS011;44880;52.814;18.270;2022-09-29T01:35:03;20.40;;;10.30;;
59093;SDS011;44880;52.814;18.270;2022-09-29T01:37:42;17.80;;;10.20;;
59093;SDS011;44880;52.814;18.270;2022-09-29T01:40:21;20.20;;;10.90;;
59093;SDS011;44880;52.814;18.270;2022-09-29T01:42:57;20.80;;;11.60;;
59093;SDS011;44880;52.814;18.270;2022-09-29T01:45:33;18.20;;;11.10;;
59093;SDS011;44880;52.814;18.270;2022-09-29T01:48:06;18.30;;;10.20;;
59093;SDS011;44880;52.814;18.270;2022-09-29T01:50:41;18.00;;;10.10;;
59093;SDS011;44880;52.814;18.270;2022-09-29T01:53:15;20.10;;;10.10;;
59093;SDS011;44880;52.814;18.270;2022-09-29T01:55:49;18.80;;;11.30;;
59093;SDS011;44880;52.814;18.270;2022-09-29T01:58:23;17.90;;;10.40;;
59093;SDS011;44880;52.814;18.270;2022-09-29T02:00:59;17.90;;;10.90;;
59093;SDS011;44880;52.814;18.270;2022-09-29T02:03:35;23.40;;;13.20;;
59093;SDS011;44880;52.814;18.270;2022-09-29T02:06:09;21.30;;;13.50;;
59093;SDS011;44880;52.814;18.270;2022-09-29T02:08:44;19.30;;;11.90;;
59093;SDS011;44880;52.814;18.270;2022-09-29T02:11:18;22.80;;;12.80;;
59093;SDS011;44880;52.814;18.270;2022-09-29T02:13:50;20.00;;;12.30;;
59093;SDS011;44880;52.814;18.270;2022-09-29T02:16:25;21.20;;;12.70;;
59093;SDS011;44880;52.814;18.270;2022-09-29T02:19:01;22.90;;;13.40;;
59093;SDS011;44880;52.814;18.270;2022-09-29T02:21:33;25.20;;;15.30;;
59093;SDS011;44880;52.814;18.270;2022-09-29T02:24:05;27.90;;;16.60;;
59093;SDS011;44880;52.814;18.270;2022-09-29T02:26:36;22.40;;;13.90;;
59093;SDS011;44880;52.814;18.270;2022-09-29T02:29:08;22.90;;;14.20;;
59093;SDS011;44880;52.814;18.270;2022-09-29T02:31:40;24.10;;;14.30;;
59093;SDS011;44880;52.814;18.270;2022-09-29T02:34:12;21.70;;;13.30;;
59093;SDS011;44880;52.814;18.270;2022-09-29T02:36:46;20.10;;;11.90;;
59093;SDS011;44880;52.814;18.270;2022-09-29T02:39:25;20.10;;;13.30;;
59093;SDS011;44880;52.814;18.270;2022-09-29T02:42:05;23.20;;;13.10;;
59093;SDS011;44880;52.814;18.270;2022-09-29T02:47:45;24.20;;;14.60;;
59093;SDS011;44880;52.814;18.270;2022-09-29T02:50:38;23.20;;;14.70;;
59093;SDS011;44880;52.814;18.270;2022-09-29T02:53:27;24.70;;;14.70;;
59093;SDS011;44880;52.814;18.270;2022-09-29T02:56:09;22.30;;;13.30;;
59093;SDS011;44880;52.814;18.270;2022-09-29T02:58:43;21.60;;;13.10;;
59093;SDS011;44880;52.814;18.270;2022-09-29T03:01:18;20.90;;;12.50;;
59093;SDS011;44880;52.814;18.270;2022-09-29T03:03:49;24.70;;;15.30;;
59093;SDS011;44880;52.814;18.270;2022-09-29T03:06:21;23.80;;;14.30;;
59093;SDS011;44880;52.814;18.270;2022-09-29T03:08:52;24.40;;;14.90;;
59093;SDS011;44880;52.814;18.270;2022-09-29T03:11:24;25.80;;;14.80;;
59093;SDS011;44880;52.814;18.270;2022-09-29T03:13:55;22.70;;;14.00;;
59093;SDS011;44880;52.814;18.270;2022-09-29T03:16:27;24.30;;;14.20;;
59093;SDS011;44880;52.814;18.270;2022-09-29T03:18:58;23.00;;;13.60;;
59093;SDS011;44880;52.814;18.270;2022-09-29T03:21:30;21.20;;;13.20;;
59093;SDS011;44880;52.814;18.270;2022-09-29T03:24:02;24.00;;;14.00;;
59093;SDS011;44880;52.814;18.270;2022-09-29T03:26:34;24.40;;;14.20;;
59093;SDS011;44880;52.814;18.270;2022-09-29T03:29:06;23.60;;;13.90;;
59093;SDS011;44880;52.814;18.270;2022-09-29T03:31:39;25.50;;;15.30;;
59093;SDS011;44880;52.814;18.270;2022-09-29T03:34:10;23.50;;;14.10;;
59093;SDS011;44880;52.814;18.270;2022-09-29T03:36:42;22.90;;;14.00;;
59093;SDS011;44880;52.814;18.270;2022-09-29T03:39:13;25.60;;;14.10;;
59093;SDS011;44880;52.814;18.270;2022-09-29T03:41:45;22.90;;;13.20;;
59093;SDS011;44880;52.814;18.270;2022-09-29T03:44:16;22.50;;;13.50;;
59093;SDS011;44880;52.814;18.270;2022-09-29T03:46:48;22.40;;;14.90;;
59093;SDS011;44880;52.814;18.270;2022-09-29T03:49:19;22.10;;;14.30;;
59093;SDS011;44880;52.814;18.270;2022-09-29T03:51:50;24.60;;;14.80;;
59093;SDS011;44880;52.814;18.270;2022-09-29T03:54:22;25.40;;;14.40;;
59093;SDS011;44880;52.814;18.270;2022-09-29T03:56:54;25.60;;;14.90;;
59093;SDS011;44880;52.814;18.270;2022-09-29T03:59:26;22.80;;;14.30;;
59093;SDS011;44880;52.814;18.270;2022-09-29T04:01:57;25.40;;;15.40;;
59093;SDS011;44880;52.814;18.270;2022-09-29T04:04:29;24.00;;;14.00;;
59093;SDS011;44880;52.814;18.270;2022-09-29T04:07:01;23.80;;;14.00;;
59093;SDS011;44880;52.814;18.270;2022-09-29T04:09:33;23.60;;;14.10;;
59093;SDS011;44880;52.814;18.270;2022-09-29T04:12:04;23.10;;;15.00;;
59093;SDS011;44880;52.814;18.270;2022-09-29T04:14:36;24.20;;;15.10;;
59093;SDS011;44880;52.814;18.270;2022-09-29T04:17:07;24.20;;;15.40;;
59093;SDS011;44880;52.814;18.270;2022-09-29T04:19:38;25.50;;;16.30;;
59093;SDS011;44880;52.814;18.270;2022-09-29T04:22:10;26.10;;;15.90;;
59093;SDS011;44880;52.814;18.270;2022-09-29T04:24:44;26.40;;;15.90;;
59093;SDS011;44880;52.814;18.270;2022-09-29T04:27:16;25.40;;;15.80;;
59093;SDS011;44880;52.814;18.270;2022-09-29T04:29:48;23.00;;;15.00;;
59093;SDS011;44880;52.814;18.270;2022-09-29T04:32:19;23.90;;;15.20;;
59093;SDS011;44880;52.814;18.270;2022-09-29T04:37:21;25.50;;;15.20;;
59093;SDS011;44880;52.814;18.270;2022-09-29T04:39:53;27.50;;;16.50;;
59093;SDS011;44880;52.814;18.270;2022-09-29T04:42:24;30.60;;;18.30;;
59093;SDS011;44880;52.814;18.270;2022-09-29T04:44:55;28.10;;;17.30;;
59093;SDS011;44880;52.814;18.270;2022-09-29T04:47:27;22.50;;;15.10;;
59093;SDS011;44880;52.814;18.270;2022-09-29T04:49:58;22.50;;;14.90;;
59093;SDS011;44880;52.814;18.270;2022-09-29T04:52:30;23.50;;;13.50;;
59093;SDS011;44880;52.814;18.270;2022-09-29T04:55:01;21.80;;;13.50;;
59093;SDS011;44880;52.814;18.270;2022-09-29T05:00:03;24.70;;;13.80;;
59093;SDS011;44880;52.814;18.270;2022-09-29T05:02:36;22.80;;;14.70;;
59093;SDS011;44880;52.814;18.270;2022-09-29T05:05:09;24.30;;;14.80;;
59093;SDS011;44880;52.814;18.270;2022-09-29T05:07:41;25.00;;;16.30;;
59093;SDS011;44880;52.814;18.270;2022-09-29T05:10:13;26.50;;;17.10;;
59093;SDS011;44880;52.814;18.270;2022-09-29T05:12:47;23.60;;;14.90;;
59093;SDS011;44880;52.814;18.270;2022-09-29T05:15:19;24.40;;;15.50;;
59093;SDS011;44880;52.814;18.270;2022-09-29T05:17:51;27.40;;;17.80;;
59093;SDS011;44880;52.814;18.270;2022-09-29T05:20:22;23.10;;;14.40;;
59093;SDS011;44880;52.814;18.270;2022-09-29T05:22:54;22.60;;;13.20;;
59093;SDS011;44880;52.814;18.270;2022-09-29T05:25:28;22.90;;;14.20;;
59093;SDS011;44880;52.814;18.270;2022-09-29T05:30:30;23.10;;;13.30;;
59093;SDS011;44880;52.814;18.270;2022-09-29T05:33:01;21.50;;;13.20;;
59093;SDS011;44880;52.814;18.270;2022-09-29T05:35:33;22.10;;;13.00;;
59093;SDS011;44880;52.814;18.270;2022-09-29T05:38:05;22.90;;;13.20;;
59093;SDS011;44880;52.814;18.270;2022-09-29T05:40:36;22.20;;;12.80;;
59093;SDS011;44880;52.814;18.270;2022-09-29T05:43:08;23.80;;;14.60;;
59093;SDS011;44880;52.814;18.270;2022-09-29T05:48:10;24.70;;;15.80;;
59093;SDS011;44880;52.814;18.270;2022-09-29T05:50:42;27.70;;;17.40;;
59093;SDS011;44880;52.814;18.270;2022-09-29T05:53:13;24.60;;;15.60;;
59093;SDS011;44880;52.814;18.270;2022-09-29T05:55:45;23.00;;;13.80;;
59093;SDS011;44880;52.814;18.270;2022-09-29T05:58:16;26.00;;;16.10;;
59093;SDS011;44880;52.814;18.270;2022-09-29T06:00:48;20.50;;;12.30;;
59093;SDS011;44880;52.814;18.270;2022-09-29T06:03:19;25.20;;;14.60;;
59093;SDS011;44880;52.814;18.270;2022-09-29T06:05:51;23.30;;;14.20;;
59093;SDS011;44880;52.814;18.270;2022-09-29T06:08:25;23.20;;;13.10;;
59093;SDS011;44880;52.814;18.270;2022-09-29T06:11:02;20.50;;;12.20;;
59093;SDS011;44880;52.814;18.270;2022-09-29T06:13:37;20.90;;;12.70;;
59093;SDS011;44880;52.814;18.270;2022-09-29T06:16:15;20.60;;;12.00;;
59093;SDS011;44880;52.814;18.270;2022-09-29T06:18:48;21.80;;;13.00;;
59093;SDS011;44880;52.814;18.270;2022-09-29T06:21:20;20.10;;;12.30;;
59093;SDS011;44880;52.814;18.270;2022-09-29T06:23:53;23.10;;;12.50;;
59093;SDS011;44880;52.814;18.270;2022-09-29T06:26:26;19.10;;;12.20;;
59093;SDS011;44880;52.814;18.270;2022-09-29T06:28:58;22.30;;;13.00;;
59093;SDS011;44880;52.814;18.270;2022-09-29T06:31:30;22.80;;;13.00;;
59093;SDS011;44880;52.814;18.270;2022-09-29T06:34:02;22.90;;;12.90;;
59093;SDS011;44880;52.814;18.270;2022-09-29T06:36:35;20.90;;;12.30;;
59093;SDS011;44880;52.814;18.270;2022-09-29T06:39:25;23.40;;;11.50;;
59093;SDS011;44880;52.814;18.270;2022-09-29T06:41:58;19.60;;;11.50;;
59093;SDS011;44880;52.814;18.270;2022-09-29T06:44:32;20.80;;;11.50;;
59093;SDS011;44880;52.814;18.270;2022-09-29T06:47:04;21.20;;;12.20;;
59093;SDS011;44880;52.814;18.270;2022-09-29T06:49:35;21.90;;;12.70;;
59093;SDS011;44880;52.814;18.270;2022-09-29T06:52:07;19.60;;;11.60;;
59093;SDS011;44880;52.814;18.270;2022-09-29T06:54:38;20.10;;;11.40;;
59093;SDS011;44880;52.814;18.270;2022-09-29T06:57:10;18.90;;;11.60;;
59093;SDS011;44880;52.814;18.270;2022-09-29T06:59:41;20.00;;;12.60;;
59093;SDS011;44880;52.814;18.270;2022-09-29T07:02:14;20.10;;;12.30;;
59093;SDS011;44880;52.814;18.270;2022-09-29T07:04:45;19.70;;;12.50;;
59093;SDS011;44880;52.814;18.270;2022-09-29T07:07:17;19.60;;;11.60;;
59093;SDS011;44880;52.814;18.270;2022-09-29T07:09:48;19.20;;;11.90;;
59093;SDS011;44880;52.814;18.270;2022-09-29T07:12:20;18.90;;;11.60;;
59093;SDS011;44880;52.814;18.270;2022-09-29T07:14:52;17.70;;;11.20;;
59093;SDS011;44880;52.814;18.270;2022-09-29T07:17:24;20.20;;;11.70;;
59093;SDS011;44880;52.814;18.270;2022-09-29T07:19:55;20.10;;;11.00;;
59093;SDS011;44880;52.814;18.270;2022-09-29T07:22:27;18.70;;;11.80;;
59093;SDS011;44880;52.814;18.270;2022-09-29T07:24:59;18.30;;;10.80;;
59093;SDS011;44880;52.814;18.270;2022-09-29T07:27:30;18.20;;;11.30;;
59093;SDS011;44880;52.814;18.270;2022-09-29T07:30:02;21.80;;;12.00;;
59093;SDS011;44880;52.814;18.270;2022-09-29T07:32:38;18.80;;;11.30;;
59093;SDS011;44880;52.814;18.270;2022-09-29T07:35:10;18.50;;;11.80;;
59093;SDS011;44880;52.814;18.270;2022-09-29T07:37:42;19.30;;;12.20;;
59093;SDS011;44880;52.814;18.270;2022-09-29T07:40:21;18.00;;;11.00;;
59093;SDS011;44880;52.814;18.270;2022-09-29T07:43:02;19.00;;;12.00;;
59093;SDS011;44880;52.814;18.270;2022-09-29T07:45:35;18.10;;;10.90;;
59093;SDS011;44880;52.814;18.270;2022-09-29T07:48:06;20.00;;;12.30;;
59093;SDS011;44880;52.814;18.270;2022-09-29T07:50:37;22.40;;;12.80;;
59093;SDS011;44880;52.814;18.270;2022-09-29T07:53:12;21.60;;;14.30;;
59093;SDS011;44880;52.814;18.270;2022-09-29T07:55:44;17.90;;;12.40;;
59093;SDS011;44880;52.814;18.270;2022-09-29T07:58:15;18.90;;;12.40;;
59093;SDS011;44880;52.814;18.270;2022-09-29T08:00:47;19.10;;;11.90;;
59093;SDS011;44880;52.814;18.270;2022-09-29T08:03:25;17.30;;;11.80;;
59093;SDS011;44880;52.814;18.270;2022-09-29T08:08:27;16.80;;;10.90;;
59093;SDS011;44880;52.814;18.270;2022-09-29T08:11:08;16.10;;;10.20;;
59093;SDS011;44880;52.814;18.270;2022-09-29T08:13:40;15.20;;;9.70;;
59093;SDS011;44880;52.814;18.270;2022-09-29T08:18:47;16.50;;;9.80;;
59093;SDS011;44880;52.814;18.270;2022-09-29T08:21:19;17.20;;;10.60;;
59093;SDS011;44880;52.814;18.270;2022-09-29T08:23:54;17.70;;;10.40;;
59093;SDS011;44880;52.814;18.270;2022-09-29T08:26:25;15.90;;;9.80;;
59093;SDS011;44880;52.814;18.270;2022-09-29T08:28:59;16.40;;;10.20;;
59093;SDS011;44880;52.814;18.270;2022-09-29T08:31:31;17.40;;;10.60;;
59093;SDS011;44880;52.814;18.270;2022-09-29T08:34:05;17.30;;;10.60;;
59093;SDS011;44880;52.814;18.270;2022-09-29T08:36:37;17.40;;;10.90;;
59093;SDS011;44880;52.814;18.270;2022-09-29T08:39:09;18.00;;;10.50;;
59093;SDS011;44880;52.814;18.270;2022-09-29T08:41:48;15.90;;;9.80;;
59093;SDS011;44880;52.814;18.270;2022-09-29T08:44:23;17.20;;;9.90;;
59093;SDS011;44880;52.814;18.270;2022-09-29T08:47:02;17.40;;;10.80;;
59093;SDS011;44880;52.814;18.270;2022-09-29T08:49:44;15.80;;;10.50;;
59093;SDS011;44880;52.814;18.270;2022-09-29T08:52:19;17.40;;;10.70;;
59093;SDS011;44880;52.814;18.270;2022-09-29T08:54:54;18.00;;;10.30;;
59093;SDS011;44880;52.814;18.270;2022-09-29T08:57:30;16.20;;;9.60;;
59093;SDS011;44880;52.814;18.270;2022-09-29T09:00:05;16.50;;;10.10;;
59093;SDS011;44880;52.814;18.270;2022-09-29T09:02:51;15.00;;;9.70;;
59093;SDS011;44880;52.814;18.270;2022-09-29T09:05:44;20.20;;;12.50;;
59093;SDS011;44880;52.814;18.270;2022-09-29T09:08:30;20.00;;;13.20;;
59093;SDS011;44880;52.814;18.270;2022-09-29T09:11:14;21.30;;;13.20;;
59093;SDS011;44880;52.814;18.270;2022-09-29T09:16:53;25.80;;;16.90;;
59093;SDS011;44880;52.814;18.270;2022-09-29T09:19:39;26.60;;;16.70;;
59093;SDS011;44880;52.814;18.270;2022-09-29T09:22:21;26.20;;;17.40;;
59093;SDS011;44880;52.814;18.270;2022-09-29T09:24:57;33.00;;;20.90;;
59093;SDS011;44880;52.814;18.270;2022-09-29T09:27:34;26.80;;;18.00;;
59093;SDS011;44880;52.814;18.270;2022-09-29T09:30:14;26.00;;;17.80;;
59093;SDS011;44880;52.814;18.270;2022-09-29T09:32:47;26.20;;;16.50;;
59093;SDS011;44880;52.814;18.270;2022-09-29T09:35:28;20.10;;;13.00;;
59093;SDS011;44880;52.814;18.270;2022-09-29T09:38:08;27.80;;;16.30;;
59093;SDS011;44880;52.814;18.270;2022-09-29T09:40:42;21.50;;;13.40;;
59093;SDS011;44880;52.814;18.270;2022-09-29T09:43:19;19.10;;;13.40;;
59093;SDS011;44880;52.814;18.270;2022-09-29T09:45:53;18.20;;;11.60;;
59093;SDS011;44880;52.814;18.270;2022-09-29T09:48:30;16.50;;;11.20;;
59093;SDS011;44880;52.814;18.270;2022-09-29T09:51:10;16.10;;;10.60;;
59093;SDS011;44880;52.814;18.270;2022-09-29T09:53:54;18.80;;;10.10;;
59093;SDS011;44880;52.814;18.270;2022-09-29T09:56:33;15.90;;;10.30;;
59093;SDS011;44880;52.814;18.270;2022-09-29T09:59:23;15.80;;;10.40;;
59093;SDS011;44880;52.814;18.270;2022-09-29T10:02:03;16.40;;;10.70;;
59093;SDS011;44880;52.814;18.270;2022-09-29T10:04:43;25.60;;;14.90;;
59093;SDS011;44880;52.814;18.270;2022-09-29T10:07:14;28.00;;;15.30;;
59093;SDS011;44880;52.814;18.270;2022-09-29T10:09:47;17.70;;;11.30;;
59093;SDS011;44880;52.814;18.270;2022-09-29T10:12:19;16.20;;;10.40;;
59093;SDS011;44880;52.814;18.270;2022-09-29T10:14:53;14.80;;;10.20;;
59093;SDS011;44880;52.814;18.270;2022-09-29T10:17:32;15.50;;;10.50;;
59093;SDS011;44880;52.814;18.270;2022-09-29T10:20:09;15.80;;;10.60;;
59093;SDS011;44880;52.814;18.270;2022-09-29T10:22:43;15.40;;;9.90;;
59093;SDS011;44880;52.814;18.270;2022-09-29T10:25:16;20.30;;;11.60;;
59093;SDS011;44880;52.814;18.270;2022-09-29T10:27:49;13.50;;;9.10;;
59093;SDS011;44880;52.814;18.270;2022-09-29T10:30:22;14.30;;;9.90;;
59093;SDS011;44880;52.814;18.270;2022-09-29T10:33:03;17.00;;;11.10;;
59093;SDS011;44880;52.814;18.270;2022-09-29T10:35:37;16.20;;;10.90;;
59093;SDS011;44880;52.814;18.270;2022-09-29T10:38:16;17.60;;;11.60;;
59093;SDS011;44880;52.814;18.270;2022-09-29T10:40:57;13.50;;;9.40;;
59093;SDS011;44880;52.814;18.270;2022-09-29T10:43:35;13.10;;;9.10;;
59093;SDS011;44880;52.814;18.270;2022-09-29T10:46:29;14.40;;;10.00;;
59093;SDS011;44880;52.814;18.270;2022-09-29T10:49:12;17.40;;;11.20;;
59093;SDS011;44880;52.814;18.270;2022-09-29T10:51:50;15.40;;;11.10;;
59093;SDS011;44880;52.814;18.270;2022-09-29T10:54:33;15.80;;;10.50;;
59093;SDS011;44880;52.814;18.270;2022-09-29T10:57:19;14.90;;;10.00;;
59093;SDS011;44880;52.814;18.270;2022-09-29T10:59:56;13.60;;;9.00;;
59093;SDS011;44880;52.814;18.270;2022-09-29T11:02:29;14.30;;;10.30;;
59093;SDS011;44880;52.814;18.270;2022-09-29T11:05:03;13.90;;;9.50;;
59093;SDS011;44880;52.814;18.270;2022-09-29T11:07:50;14.10;;;8.50;;
59093;SDS011;44880;52.814;18.270;2022-09-29T11:10:29;14.50;;;9.80;;
59093;SDS011;44880;52.814;18.270;2022-09-29T11:16:07;13.90;;;9.60;;
59093;SDS011;44880;52.814;18.270;2022-09-29T11:21:50;14.30;;;8.60;;
59093;SDS011;44880;52.814;18.270;2022-09-29T11:27:39;13.60;;;8.20;;
59093;SDS011;44880;52.814;18.270;2022-09-29T11:30:35;15.40;;;10.10;;
59093;SDS011;44880;52.814;18.270;2022-09-29T11:33:16;15.00;;;9.00;;
59093;SDS011;44880;52.814;18.270;2022-09-29T11:36:16;13.50;;;8.90;;
59093;SDS011;44880;52.814;18.270;2022-09-29T11:38:56;17.40;;;10.70;;
59093;SDS011;44880;52.814;18.270;2022-09-29T11:41:49;18.30;;;11.50;;
59093;SDS011;44880;52.814;18.270;2022-09-29T11:44:35;15.10;;;10.20;;
59093;SDS011;44880;52.814;18.270;2022-09-29T11:51:01;14.60;;;8.70;;
59093;SDS011;44880;52.814;18.270;2022-09-29T11:56:47;12.40;;;7.80;;
59093;SDS011;44880;52.814;18.270;2022-09-29T12:05:34;12.20;;;7.10;;
59093;SDS011;44880;52.814;18.270;2022-09-29T12:08:15;11.40;;;6.30;;
59093;SDS011;44880;52.814;18.270;2022-09-29T12:11:10;13.50;;;7.90;;
59093;SDS011;44880;52.814;18.270;2022-09-29T12:13:44;12.20;;;7.70;;
59093;SDS011;44880;52.814;18.270;2022-09-29T12:16:20;12.20;;;6.80;;
59093;SDS011;44880;52.814;18.270;2022-09-29T12:19:00;10.40;;;5.60;;
59093;SDS011;44880;52.814;18.270;2022-09-29T12:21:36;11.30;;;6.10;;
59093;SDS011;44880;52.814;18.270;2022-09-29T12:24:32;10.10;;;5.70;;
59093;SDS011;44880;52.814;18.270;2022-09-29T12:27:04;12.60;;;6.30;;
59093;SDS011;44880;52.814;18.270;2022-09-29T12:29:40;9.60;;;5.70;;
59093;SDS011;44880;52.814;18.270;2022-09-29T12:32:20;12.70;;;7.10;;
59093;SDS011;44880;52.814;18.270;2022-09-29T12:34:56;10.80;;;6.20;;
59093;SDS011;44880;52.814;18.270;2022-09-29T12:37:31;10.70;;;6.30;;
59093;SDS011;44880;52.814;18.270;2022-09-29T12:40:20;12.90;;;7.00;;
59093;SDS011;44880;52.814;18.270;2022-09-29T12:43:02;11.30;;;6.70;;
59093;SDS011;44880;52.814;18.270;2022-09-29T12:45:50;11.50;;;6.00;;
59093;SDS011;44880;52.814;18.270;2022-09-29T12:51:41;9.40;;;5.80;;
59093;SDS011;44880;52.814;18.270;2022-09-29T12:54:15;10.30;;;5.70;;
59093;SDS011;44880;52.814;18.270;2022-09-29T12:57:03;9.40;;;5.30;;
59093;SDS011;44880;52.814;18.270;2022-09-29T12:59:36;12.30;;;6.90;;
59093;SDS011;44880;52.814;18.270;2022-09-29T13:02:20;10.20;;;5.70;;
59093;SDS011;44880;52.814;18.270;2022-09-29T13:05:23;13.60;;;6.20;;
59093;SDS011;44880;52.814;18.270;2022-09-29T13:11:18;10.70;;;6.40;;
59093;SDS011;44880;52.814;18.270;2022-09-29T13:14:20;11.80;;;6.90;;
59093;SDS011;44880;52.814;18.270;2022-09-29T13:17:10;12.60;;;7.40;;
59093;SDS011;44880;52.814;18.270;2022-09-29T13:20:00;10.70;;;5.90;;
59093;SDS011;44880;52.814;18.270;2022-09-29T13:25:42;9.40;;;4.90;;
59093;SDS011;44880;52.814;18.270;2022-09-29T13:28:33;11.20;;;5.60;;
59093;SDS011;44880;52.814;18.270;2022-09-29T13:31:15;13.10;;;6.60;;
59093;SDS011;44880;52.814;18.270;2022-09-29T13:33:50;14.90;;;7.90;;
59093;SDS011;44880;52.814;18.270;2022-09-29T13:36:42;11.80;;;6.70;;
59093;SDS011;44880;52.814;18.270;2022-09-29T13:39:19;12.40;;;7.20;;
59093;SDS011;44880;52.814;18.270;2022-09-29T13:57:19;13.10;;;7.80;;
59093;SDS011;44880;52.814;18.270;2022-09-29T14:06:03;15.00;;;9.10;;
59093;SDS011;44880;52.814;18.270;2022-09-29T14:08:42;15.80;;;10.00;;
59093;SDS011;44880;52.814;18.270;2022-09-29T14:11:29;13.00;;;8.20;;
59093;SDS011;44880;52.814;18.270;2022-09-29T14:14:04;14.10;;;7.60;;
59093;SDS011;44880;52.814;18.270;2022-09-29T14:22:56;15.80;;;10.00;;
59093;SDS011;44880;52.814;18.270;2022-09-29T14:28:47;16.90;;;9.70;;
59093;SDS011;44880;52.814;18.270;2022-09-29T14:34:21;16.00;;;10.70;;
59093;SDS011;44880;52.814;18.270;2022-09-29T14:36:54;15.70;;;10.10;;
59093;SDS011;44880;52.814;18.270;2022-09-29T14:40:04;16.10;;;10.60;;
59093;SDS011;44880;52.814;18.270;2022-09-29T14:43:10;15.90;;;10.60;;
59093;SDS011;44880;52.814;18.270;2022-09-29T14:45:50;15.90;;;10.20;;
59093;SDS011;44880;52.814;18.270;2022-09-29T14:49:00;15.00;;;10.50;;
59093;SDS011;44880;52.814;18.270;2022-09-29T14:52:22;14.60;;;9.80;;
59093;SDS011;44880;52.814;18.270;2022-09-29T15:01:11;13.80;;;10.10;;
59093;SDS011;44880;52.814;18.270;2022-09-29T15:03:48;15.20;;;10.20;;
59093;SDS011;44880;52.814;18.270;2022-09-29T15:06:21;14.30;;;10.10;;
59093;SDS011;44880;52.814;18.270;2022-09-29T15:09:14;16.50;;;11.10;;
59093;SDS011;44880;52.814;18.270;2022-09-29T15:11:49;15.80;;;10.50;;
59093;SDS011;44880;52.814;18.270;2022-09-29T15:14:44;13.90;;;10.00;;
59093;SDS011;44880;52.814;18.270;2022-09-29T15:17:23;14.10;;;10.10;;
59093;SDS011;44880;52.814;18.270;2022-09-29T15:20:11;14.70;;;10.30;;
59093;SDS011;44880;52.814;18.270;2022-09-29T15:22:54;15.10;;;10.50;;
59093;SDS011;44880;52.814;18.270;2022-09-29T15:25:56;13.90;;;9.70;;
59093;SDS011;44880;52.814;18.270;2022-09-29T15:28:30;15.50;;;10.50;;
59093;SDS011;44880;52.814;18.270;2022-09-29T15:31:05;16.90;;;11.40;;
59093;SDS011;44880;52.814;18.270;2022-09-29T15:33:43;14.90;;;10.50;;
59093;SDS011;44880;52.814;18.270;2022-09-29T15:36:19;17.50;;;10.90;;
59093;SDS011;44880;52.814;18.270;2022-09-29T15:38:52;15.80;;;10.70;;
59093;SDS011;44880;52.814;18.270;2022-09-29T15:41:47;13.60;;;9.40;;
59093;SDS011;44880;52.814;18.270;2022-09-29T15:44:31;14.40;;;9.70;;
59093;SDS011;44880;52.814;18.270;2022-09-29T15:49:58;16.00;;;10.10;;
59093;SDS011;44880;52.814;18.270;2022-09-29T15:52:34;15.20;;;9.40;;
59093;SDS011;44880;52.814;18.270;2022-09-29T15:55:17;15.30;;;10.50;;
59093;SDS011;44880;52.814;18.270;2022-09-29T15:57:54;15.20;;;9.90;;
59093;SDS011;44880;52.814;18.270;2022-09-29T16:00:58;15.40;;;9.90;;
59093;SDS011;44880;52.814;18.270;2022-09-29T16:03:52;16.20;;;10.20;;
59093;SDS011;44880;52.814;18.270;2022-09-29T16:06:46;16.70;;;10.50;;
59093;SDS011;44880;52.814;18.270;2022-09-29T16:09:26;15.70;;;10.40;;
59093;SDS011;44880;52.814;18.270;2022-09-29T16:12:10;16.40;;;10.30;;
59093;SDS011;44880;52.814;18.270;2022-09-29T16:14:52;16.80;;;10.10;;
59093;SDS011;44880;52.814;18.270;2022-09-29T16:17:41;15.90;;;10.30;;
59093;SDS011;44880;52.814;18.270;2022-09-29T16:20:21;18.60;;;11.80;;
59093;SDS011;44880;52.814;18.270;2022-09-29T16:22:55;20.60;;;12.30;;
59093;SDS011;44880;52.814;18.270;2022-09-29T16:28:00;19.40;;;12.00;;
59093;SDS011;44880;52.814;18.270;2022-09-29T16:30:39;22.20;;;13.00;;
59093;SDS011;44880;52.814;18.270;2022-09-29T16:33:13;21.00;;;12.50;;
59093;SDS011;44880;52.814;18.270;2022-09-29T16:35:55;22.20;;;14.10;;
59093;SDS011;44880;52.814;18.270;2022-09-29T16:41:16;25.60;;;16.40;;
59093;SDS011;44880;52.814;18.270;2022-09-29T16:44:13;27.30;;;16.60;;
59093;SDS011;44880;52.814;18.270;2022-09-29T16:46:46;29.60;;;19.90;;
59093;SDS011;44880;52.814;18.270;2022-09-29T16:49:20;30.70;;;19.90;;
59093;SDS011;44880;52.814;18.270;2022-09-29T16:51:53;32.60;;;20.90;;
59093;SDS011;44880;52.814;18.270;2022-09-29T16:54:27;42.60;;;27.70;;
59093;SDS011;44880;52.814;18.270;2022-09-29T16:57:21;49.00;;;31.00;;